Time;durP1;ratioP1;P1;durP2;ratioP2;P2;SDS_P1;SDS_P2;PMS_P1;PMS_P2;Temp;Humidity;BMP_temperature;BMP_pressure;BME280_temperature;BME280_humidity;BME280_pressure;Samples;Min_cycle;Max_cycle;Signal;HPM_P1;HPM_P2
2023/07/13 00:02:07;;;;;;;3.03;0.90;;;;;;;;;;6068413;23;20411;-87
2023/07/13 00:04:32;;;;;;;1.83;0.90;;;;;;;;;;6092759;23;20276;-88
2023/07/13 00:06:58;;;;;;;2.25;0.95;;;;;;;;;;6069689;23;20022;-88
2023/07/13 00:09:23;;;;;;;2.65;0.95;;;;;;;;;;6067401;23;20321;-87
2023/07/13 00:11:52;;;;;;;3.80;0.95;;;;;;;;;;6067355;23;20458;-88
2023/07/13 00:14:20;;;;;;;4.57;0.98;;;;;;;;;;6068337;23;20022;-87
2023/07/13 00:16:46;;;;;;;2.70;0.93;;;;;;;;;;6072627;23;20003;-87
2023/07/13 00:19:12;;;;;;;6.00;1.05;;;;;;;;;;6071415;23;20025;-88
2023/07/13 00:21:38;;;;;;;3.83;1.33;;;;;;;;;;6068002;23;20003;-88
2023/07/13 00:24:07;;;;;;;3.03;0.65;;;;;;;;;;6069729;23;20112;-88
2023/07/13 00:26:33;;;;;;;5.75;0.90;;;;;;;;;;6069756;23;20109;-88
2023/07/13 00:28:59;;;;;;;6.35;0.80;;;;;;;;;;6071544;23;20499;-88
2023/07/13 00:31:24;;;;;;;4.45;0.60;;;;;;;;;;6068295;23;20003;-89
2023/07/13 00:33:49;;;;;;;3.83;0.85;;;;;;;;;;6068141;23;20089;-88
2023/07/13 00:36:15;;;;;;;1.50;0.70;;;;;;;;;;6069222;23;20007;-88
2023/07/13 00:38:40;;;;;;;1.88;0.70;;;;;;;;;;6091947;23;20407;-89
2023/07/13 00:41:05;;;;;;;6.75;0.90;;;;;;;;;;6067333;23;20053;-87
2023/07/13 00:43:31;;;;;;;3.80;1.00;;;;;;;;;;6043840;23;20086;-88
2023/07/13 00:46:29;;;;;;;3.08;1.20;;;;;;;;;;6043372;23;20110;-88
2023/07/13 00:48:57;;;;;;;5.20;1.00;;;;;;;;;;5966343;23;20539;-88
2023/07/13 00:51:27;;;;;;;6.43;2.13;;;;;;;;;;6069081;23;20003;-88
2023/07/13 00:53:54;;;;;;;3.10;1.15;;;;;;;;;;6068711;23;20332;-88
2023/07/13 00:56:19;;;;;;;5.40;0.95;;;;;;;;;;6043042;23;20042;-88
2023/07/13 00:58:45;;;;;;;6.13;1.00;;;;;;;;;;6068682;23;20011;-88
2023/07/13 01:01:13;;;;;;;5.47;1.02;;;;;;;;;;6043469;23;20014;-88
2023/07/13 01:03:40;;;;;;;5.57;1.00;;;;;;;;;;6068701;23;20062;-88
2023/07/13 01:06:05;;;;;;;4.40;1.00;;;;;;;;;;6042725;23;20459;-88
2023/07/13 01:08:31;;;;;;;4.20;1.13;;;;;;;;;;6043722;23;20030;-88
2023/07/13 01:10:57;;;;;;;5.03;0.90;;;;;;;;;;6068410;23;19998;-88
2023/07/13 01:13:23;;;;;;;3.35;0.85;;;;;;;;;;6042789;23;20003;-88
2023/07/13 01:15:49;;;;;;;2.55;0.93;;;;;;;;;;6043247;23;20057;-88
2023/07/13 01:18:25;;;;;;;7.00;1.15;;;;;;;;;;6043424;23;20014;-88
2023/07/13 01:20:50;;;;;;;6.18;1.00;;;;;;;;;;6043072;23;20030;-88
2023/07/13 01:23:19;;;;;;;4.40;1.10;;;;;;;;;;6068988;23;20479;-88
2023/07/13 01:25:44;;;;;;;2.83;1.08;;;;;;;;;;6068684;23;20050;-88
2023/07/13 01:28:09;;;;;;;2.25;0.90;;;;;;;;;;6043387;23;20003;-88
2023/07/13 01:30:39;;;;;;;3.95;1.10;;;;;;;;;;6043488;23;20003;-88
2023/07/13 01:33:06;;;;;;;2.45;0.88;;;;;;;;;;6043414;23;20011;-88
2023/07/13 01:35:35;;;;;;;5.22;1.27;;;;;;;;;;6043238;23;20319;-88
2023/07/13 01:38:01;;;;;;;2.70;0.90;;;;;;;;;;6043630;23;20070;-88
2023/07/13 01:40:27;;;;;;;6.82;1.20;;;;;;;;;;6044281;23;20018;-88
2023/07/13 01:42:52;;;;;;;6.28;1.25;;;;;;;;;;6070233;23;20402;-88
2023/07/13 01:45:17;;;;;;;2.67;1.05;;;;;;;;;;6044925;23;20753;-88
2023/07/13 01:47:43;;;;;;;3.28;1.20;;;;;;;;;;6043694;23;20003;-88
2023/07/13 01:50:08;;;;;;;4.57;1.13;;;;;;;;;;6043653;23;19995;-88
2023/07/13 01:52:34;;;;;;;3.70;0.90;;;;;;;;;;6068271;23;20082;-88
2023/07/13 01:54:59;;;;;;;3.72;1.25;;;;;;;;;;6068449;23;19995;-88
2023/07/13 01:57:27;;;;;;;5.05;1.20;;;;;;;;;;6043240;23;19999;-88
2023/07/13 01:59:52;;;;;;;5.18;1.13;;;;;;;;;;6067432;23;20443;-88
2023/07/13 02:02:17;;;;;;;4.72;1.38;;;;;;;;;;6069119;23;20002;-87
2023/07/13 02:04:42;;;;;;;4.25;1.25;;;;;;;;;;6068444;23;20023;-88
2023/07/13 02:07:08;;;;;;;2.08;1.02;;;;;;;;;;6067340;23;20453;-87
2023/07/13 02:09:34;;;;;;;4.75;1.10;;;;;;;;;;6041593;23;19998;-88
2023/07/13 02:11:59;;;;;;;4.50;1.20;;;;;;;;;;6042251;23;20007;-88
2023/07/13 02:14:24;;;;;;;2.63;1.30;;;;;;;;;;6042493;23;20102;-88
2023/07/13 02:16:49;;;;;;;8.88;1.30;;;;;;;;;;6042409;23;20010;-88
2023/07/13 02:19:15;;;;;;;3.97;1.20;;;;;;;;;;6042152;23;20300;-88
2023/07/13 02:21:40;;;;;;;3.33;1.23;;;;;;;;;;6042723;23;20047;-88
2023/07/13 02:24:05;;;;;;;6.78;1.33;;;;;;;;;;6042724;23;19999;-88
2023/07/13 02:26:31;;;;;;;5.32;1.65;;;;;;;;;;6043404;23;20382;-88
2023/07/13 02:28:56;;;;;;;8.45;1.42;;;;;;;;;;6066799;23;20017;-88
2023/07/13 02:31:21;;;;;;;5.07;1.20;;;;;;;;;;6042547;23;20007;-88
2023/07/13 02:33:46;;;;;;;12.38;1.55;;;;;;;;;;6067543;23;20125;-87
2023/07/13 02:36:12;;;;;;;3.35;0.90;;;;;;;;;;6067298;23;19998;-88
2023/07/13 02:38:37;;;;;;;6.72;1.25;;;;;;;;;;6066845;23;20074;-87
2023/07/13 02:41:03;;;;;;;4.25;1.10;;;;;;;;;;6041821;23;20010;-87
2023/07/13 02:43:29;;;;;;;2.97;1.13;;;;;;;;;;6042085;23;20011;-87
2023/07/13 02:45:55;;;;;;;3.83;1.15;;;;;;;;;;6042394;23;20269;-88
2023/07/13 02:48:20;;;;;;;4.35;1.00;;;;;;;;;;6041382;23;19995;-87
2023/07/13 02:50:45;;;;;;;5.25;1.10;;;;;;;;;;6067992;23;20006;-87
2023/07/13 02:53:10;;;;;;;3.47;1.30;;;;;;;;;;6066379;23;20036;-87
2023/07/13 02:55:36;;;;;;;8.00;1.65;;;;;;;;;;6067773;23;20031;-87
2023/07/13 02:58:01;;;;;;;4.15;1.08;;;;;;;;;;6042187;23;20327;-87
2023/07/13 03:00:27;;;;;;;3.25;1.30;;;;;;;;;;6042238;23;20312;-87
2023/07/13 03:03:00;;;;;;;7.68;1.40;;;;;;;;;;6041628;23;20596;-87
2023/07/13 03:05:25;;;;;;;6.13;1.40;;;;;;;;;;6042524;23;19995;-87
2023/07/13 03:07:50;;;;;;;4.18;1.42;;;;;;;;;;6042617;23;20494;-87
2023/07/13 03:10:16;;;;;;;4.13;1.40;;;;;;;;;;6042979;23;20002;-88
2023/07/13 03:12:41;;;;;;;5.70;1.60;;;;;;;;;;6066627;23;19999;-87
2023/07/13 03:15:06;;;;;;;5.28;1.15;;;;;;;;;;6067190;23;20006;-87
2023/07/13 03:17:32;;;;;;;6.57;1.67;;;;;;;;;;6068610;23;19998;-87
2023/07/13 03:19:57;;;;;;;6.40;1.50;;;;;;;;;;6041749;23;20380;-87
2023/07/13 03:22:22;;;;;;;10.88;1.65;;;;;;;;;;6043018;23;20390;-87
2023/07/13 03:24:48;;;;;;;5.05;1.50;;;;;;;;;;6068565;23;20010;-86
2023/07/13 03:27:13;;;;;;;5.65;1.35;;;;;;;;;;6068022;23;19998;-87
2023/07/13 03:29:39;;;;;;;7.82;1.50;;;;;;;;;;6042143;23;20419;-87
2023/07/13 03:32:04;;;;;;;3.90;1.10;;;;;;;;;;6043587;23;20003;-87
2023/07/13 03:34:33;;;;;;;6.75;1.50;;;;;;;;;;6068578;23;19998;-87
2023/07/13 03:36:58;;;;;;;4.63;1.52;;;;;;;;;;6065740;23;20449;-87
2023/07/13 03:39:23;;;;;;;5.07;1.65;;;;;;;;;;6042401;23;20086;-87
2023/07/13 03:41:49;;;;;;;9.93;2.15;;;;;;;;;;6070081;23;20014;-87
2023/07/13 03:44:16;;;;;;;4.97;1.42;;;;;;;;;;6066519;23;20002;-87
2023/07/13 03:46:41;;;;;;;4.22;1.55;;;;;;;;;;6067890;23;20331;-88
2023/07/13 03:49:06;;;;;;;6.55;1.60;;;;;;;;;;6069296;23;19995;-87
2023/07/13 03:51:34;;;;;;;5.00;1.35;;;;;;;;;;6067943;23;20062;-87
2023/07/13 03:54:00;;;;;;;4.20;1.40;;;;;;;;;;6091824;23;20019;-87
2023/07/13 03:56:25;;;;;;;6.85;1.50;;;;;;;;;;6067583;23;20038;-87
2023/07/13 03:58:50;;;;;;;9.40;2.05;;;;;;;;;;6091803;23;20023;-87
2023/07/13 04:01:17;;;;;;;8.50;1.40;;;;;;;;;;6069300;23;20114;-87
2023/07/13 04:03:43;;;;;;;3.28;1.40;;;;;;;;;;6069203;23;20320;-87
2023/07/13 04:06:14;;;;;;;8.48;1.50;;;;;;;;;;6091422;23;20011;-87
2023/07/13 04:08:40;;;;;;;2.40;1.13;;;;;;;;;;6067556;23;19999;-87
2023/07/13 04:11:05;;;;;;;12.32;2.10;;;;;;;;;;6091700;23;20105;-87
2023/07/13 04:13:31;;;;;;;8.10;1.63;;;;;;;;;;6091628;23;20054;-87
2023/07/13 04:15:56;;;;;;;10.07;1.60;;;;;;;;;;6091684;23;20011;-87
2023/07/13 04:18:22;;;;;;;3.42;1.33;;;;;;;;;;6068614;23;20007;-87
2023/07/13 04:20:47;;;;;;;10.43;1.77;;;;;;;;;;6066243;23;20007;-88
2023/07/13 04:23:13;;;;;;;5.60;1.77;;;;;;;;;;6068887;23;20443;-87
2023/07/13 04:25:39;;;;;;;7.43;1.60;;;;;;;;;;6067511;23;20090;-87
2023/07/13 04:28:04;;;;;;;8.63;1.77;;;;;;;;;;6068130;23;19991;-87
2023/07/13 04:30:30;;;;;;;8.63;1.60;;;;;;;;;;6069407;23;20023;-87
2023/07/13 04:32:55;;;;;;;12.90;2.00;;;;;;;;;;6067871;23;20007;-87
2023/07/13 04:35:20;;;;;;;5.07;1.30;;;;;;;;;;6092387;23;20003;-87
2023/07/13 04:37:50;;;;;;;8.75;1.48;;;;;;;;;;6069816;23;20392;-87
2023/07/13 04:40:16;;;;;;;11.93;1.88;;;;;;;;;;6070114;23;20002;-87
2023/07/13 04:42:41;;;;;;;12.18;1.98;;;;;;;;;;6068744;23;20011;-87
2023/07/13 04:45:10;;;;;;;17.80;2.33;;;;;;;;;;6068501;23;20086;-87
2023/07/13 04:47:35;;;;;;;5.80;1.55;;;;;;;;;;6071222;23;20112;-87
2023/07/13 04:50:01;;;;;;;10.23;1.90;;;;;;;;;;6071948;23;20399;-88
2023/07/13 04:52:29;;;;;;;10.98;1.63;;;;;;;;;;6072788;23;20003;-88
2023/07/13 04:54:54;;;;;;;9.57;1.80;;;;;;;;;;6070862;23;20005;-88
2023/07/13 04:57:20;;;;;;;12.07;1.75;;;;;;;;;;6069868;23;20019;-88
2023/07/13 04:59:45;;;;;;;8.60;2.08;;;;;;;;;;6068929;23;20078;-88
2023/07/13 05:02:10;;;;;;;9.00;1.83;;;;;;;;;;6069082;23;20002;-88
2023/07/13 05:04:36;;;;;;;11.18;1.52;;;;;;;;;;6069556;23;20078;-88
2023/07/13 05:07:01;;;;;;;7.10;1.85;;;;;;;;;;6068492;23;20005;-88
2023/07/13 05:09:27;;;;;;;6.60;1.45;;;;;;;;;;6066583;23;20010;-88
2023/07/13 05:11:52;;;;;;;11.43;1.80;;;;;;;;;;6066679;23;19999;-88
2023/07/13 05:14:17;;;;;;;10.73;2.08;;;;;;;;;;6067870;23;20018;-87
2023/07/13 05:16:45;;;;;;;9.00;1.65;;;;;;;;;;6067429;23;20482;-88
2023/07/13 05:19:11;;;;;;;8.48;1.55;;;;;;;;;;6068460;23;20003;-87
2023/07/13 05:21:37;;;;;;;7.85;1.45;;;;;;;;;;6068245;23;20060;-87
2023/07/13 05:24:02;;;;;;;6.53;1.35;;;;;;;;;;6066875;23;20380;-87
2023/07/13 05:26:30;;;;;;;4.70;1.45;;;;;;;;;;6090876;23;20586;-87
2023/07/13 05:28:55;;;;;;;7.78;1.40;;;;;;;;;;6066439;23;19999;-88
2023/07/13 05:31:20;;;;;;;9.00;1.90;;;;;;;;;;6066648;23;20030;-87
2023/07/13 05:33:46;;;;;;;13.43;1.45;;;;;;;;;;6090623;23;20026;-87
2023/07/13 05:36:11;;;;;;;8.25;1.80;;;;;;;;;;6066789;23;20002;-87
2023/07/13 05:38:36;;;;;;;8.30;2.17;;;;;;;;;;6066705;23;20094;-87
2023/07/13 05:41:01;;;;;;;8.18;1.95;;;;;;;;;;6068235;23;20007;-86
2023/07/13 05:43:27;;;;;;;11.90;1.80;;;;;;;;;;6068325;23;20030;-87
2023/07/13 05:45:56;;;;;;;12.65;2.00;;;;;;;;;;6041807;23;19999;-87
2023/07/13 05:48:21;;;;;;;10.32;2.10;;;;;;;;;;6042851;23;20030;-87
2023/07/13 05:50:47;;;;;;;7.97;1.70;;;;;;;;;;6068103;23;20067;-87
2023/07/13 05:53:12;;;;;;;8.73;1.88;;;;;;;;;;6042812;23;20038;-87
2023/07/13 05:55:47;;;;;;;8.93;1.90;;;;;;;;;;6042354;23;20327;-87
2023/07/13 05:58:19;;;;;;;5.35;1.58;;;;;;;;;;6041943;23;20642;-87
2023/07/13 06:00:45;;;;;;;8.45;1.60;;;;;;;;;;6042030;23;20277;-87
2023/07/13 06:03:10;;;;;;;9.35;2.13;;;;;;;;;;6064830;23;20105;-88
2023/07/13 06:05:36;;;;;;;6.85;1.83;;;;;;;;;;6065840;23;20097;-88
2023/07/13 06:08:04;;;;;;;15.98;1.80;;;;;;;;;;6042630;23;20049;-88
2023/07/13 06:10:32;;;;;;;8.63;2.13;;;;;;;;;;6042640;23;20025;-89
2023/07/13 06:12:58;;;;;;;11.23;1.65;;;;;;;;;;6065540;23;20013;-87
2023/07/13 06:15:23;;;;;;;7.30;2.22;;;;;;;;;;6042741;23;20427;-88
2023/07/13 06:17:52;;;;;;;7.28;1.70;;;;;;;;;;6066799;23;20097;-88
2023/07/13 06:20:17;;;;;;;10.00;2.10;;;;;;;;;;6044752;23;20010;-88
2023/07/13 06:22:43;;;;;;;11.05;2.03;;;;;;;;;;6044283;23;19999;-85
2023/07/13 06:25:08;;;;;;;7.18;1.88;;;;;;;;;;6069249;23;20006;-86
2023/07/13 06:27:33;;;;;;;8.57;1.95;;;;;;;;;;6043302;23;20005;-86
2023/07/13 06:29:59;;;;;;;12.32;2.95;;;;;;;;;;6068600;23;20395;-86
2023/07/13 06:32:24;;;;;;;5.45;1.52;;;;;;;;;;6067002;23;20002;-86
2023/07/13 06:34:51;;;;;;;9.32;2.30;;;;;;;;;;6042415;23;20058;-86
2023/07/13 06:37:16;;;;;;;8.85;2.05;;;;;;;;;;6070130;23;20062;-86
2023/07/13 06:39:42;;;;;;;11.93;3.03;;;;;;;;;;6043819;23;19995;-87
2023/07/13 06:42:07;;;;;;;10.05;2.30;;;;;;;;;;6067840;23;20018;-86
2023/07/13 06:44:35;;;;;;;8.45;2.00;;;;;;;;;;6042462;23;20058;-86
2023/07/13 06:47:00;;;;;;;12.27;2.63;;;;;;;;;;6042529;23;20058;-87
2023/07/13 06:49:25;;;;;;;8.27;2.15;;;;;;;;;;6065095;23;20041;-87
2023/07/13 06:51:51;;;;;;;6.15;2.10;;;;;;;;;;6042799;23;20007;-87
2023/07/13 06:54:16;;;;;;;6.07;1.92;;;;;;;;;;6042652;23;20007;-87
2023/07/13 06:56:41;;;;;;;15.73;2.13;;;;;;;;;;6043044;23;20335;-87
2023/07/13 06:59:06;;;;;;;9.80;2.05;;;;;;;;;;6042306;23;20011;-86
2023/07/13 07:01:34;;;;;;;9.35;1.70;;;;;;;;;;6065773;23;20033;-86
2023/07/13 07:04:00;;;;;;;9.02;1.85;;;;;;;;;;6041703;23;20323;-86
2023/07/13 07:06:25;;;;;;;11.40;1.92;;;;;;;;;;6041810;23;20018;-84
2023/07/13 07:08:51;;;;;;;7.78;2.28;;;;;;;;;;6042578;23;20003;-84
2023/07/13 07:11:17;;;;;;;8.52;1.40;;;;;;;;;;6042942;23;20002;-84
2023/07/13 07:13:43;;;;;;;10.68;1.42;;;;;;;;;;6069092;23;20002;-84
2023/07/13 07:16:10;;;;;;;11.77;2.22;;;;;;;;;;6042894;23;20022;-84
2023/07/13 07:18:36;;;;;;;11.80;2.75;;;;;;;;;;6068734;23;20352;-84
2023/07/13 07:21:02;;;;;;;10.65;2.00;;;;;;;;;;6070196;23;19999;-84
2023/07/13 07:23:27;;;;;;;11.38;2.25;;;;;;;;;;6071752;23;20002;-84
2023/07/13 07:25:52;;;;;;;11.95;2.13;;;;;;;;;;6045163;23;20367;-84
2023/07/13 07:28:18;;;;;;;12.02;2.03;;;;;;;;;;6068873;23;20010;-84
2023/07/13 07:30:48;;;;;;;9.30;1.55;;;;;;;;;;6044449;23;20010;-84
2023/07/13 07:33:14;;;;;;;11.50;2.00;;;;;;;;;;6071412;23;19999;-84
2023/07/13 07:35:39;;;;;;;8.63;2.10;;;;;;;;;;6074611;23;20005;-85
2023/07/13 07:38:04;;;;;;;11.68;2.58;;;;;;;;;;6071132;23;20316;-85
2023/07/13 07:40:31;;;;;;;9.73;2.22;;;;;;;;;;6070442;23;20002;-84
2023/07/13 07:42:56;;;;;;;6.38;2.20;;;;;;;;;;6063339;23;20067;-85
2023/07/13 07:45:22;;;;;;;13.20;3.35;;;;;;;;;;6069885;23;19998;-85
2023/07/13 07:47:47;;;;;;;9.43;2.22;;;;;;;;;;6070235;23;19994;-85
2023/07/13 07:50:12;;;;;;;7.78;2.08;;;;;;;;;;6070073;23;20372;-85
2023/07/13 07:52:38;;;;;;;8.38;1.88;;;;;;;;;;6073057;23;20006;-86
2023/07/13 07:55:04;;;;;;;10.60;2.00;;;;;;;;;;6073011;23;20006;-85
2023/07/13 07:57:30;;;;;;;9.68;2.13;;;;;;;;;;6074527;23;20038;-85
2023/07/13 07:59:56;;;;;;;10.38;1.75;;;;;;;;;;6072629;23;20002;-85
2023/07/13 08:02:21;;;;;;;10.45;2.63;;;;;;;;;;6094278;23;20010;-85
2023/07/13 08:04:46;;;;;;;8.40;2.08;;;;;;;;;;6095752;23;20003;-86
2023/07/13 08:07:15;;;;;;;7.75;0.90;;;;;;;;;;6069553;23;19999;-85
2023/07/13 08:09:43;;;;;;;4.13;1.60;;;;;;;;;;6071245;23;19995;-85
2023/07/13 08:12:08;;;;;;;9.00;2.63;;;;;;;;;;6069640;23;20422;-85
2023/07/13 08:14:33;;;;;;;7.90;1.90;;;;;;;;;;6068600;23;20003;-85
2023/07/13 08:16:58;;;;;;;8.85;2.05;;;;;;;;;;6069733;23;20007;-85
2023/07/13 08:19:24;;;;;;;10.82;2.28;;;;;;;;;;6068860;23;20011;-85
2023/07/13 08:21:49;;;;;;;9.60;2.20;;;;;;;;;;6092230;23;20011;-86
2023/07/13 08:24:14;;;;;;;9.95;1.60;;;;;;;;;;6069777;23;20002;-85
2023/07/13 08:26:43;;;;;;;11.40;1.70;;;;;;;;;;6068225;23;20003;-85
2023/07/13 08:29:08;;;;;;;3.42;0.98;;;;;;;;;;6067234;23;20024;-85
2023/07/13 08:31:33;;;;;;;10.10;2.03;;;;;;;;;;6066943;23;20007;-85
2023/07/13 08:33:58;;;;;;;8.02;1.92;;;;;;;;;;6067870;23;20070;-85
2023/07/13 08:36:25;;;;;;;6.88;1.60;;;;;;;;;;6067630;23;20324;-86
2023/07/13 08:38:50;;;;;;;3.83;1.33;;;;;;;;;;6066427;23;19999;-85
2023/07/13 08:41:17;;;;;;;11.45;1.70;;;;;;;;;;6068421;23;20046;-85
2023/07/13 08:43:45;;;;;;;11.75;2.00;;;;;;;;;;6043336;23;20014;-85
2023/07/13 08:46:33;;;;;;;7.55;1.70;;;;;;;;;;6042498;23;20006;-84
2023/07/13 08:49:01;;;;;;;6.20;1.73;;;;;;;;;;6042144;23;20010;-85
2023/07/13 08:51:27;;;;;;;11.70;2.83;;;;;;;;;;6041747;23;20186;-87
2023/07/13 08:53:56;;;;;;;10.18;2.03;;;;;;;;;;6065799;23;20258;-82
2023/07/13 08:56:24;;;;;;;5.18;1.90;;;;;;;;;;6066617;23;19999;-82
2023/07/13 08:58:57;;;;;;;7.80;1.92;;;;;;;;;;6040593;23;20015;-82
2023/07/13 09:01:28;;;;;;;9.05;2.28;;;;;;;;;;6063580;23;20367;-83
2023/07/13 09:03:56;;;;;;;4.30;1.75;;;;;;;;;;6039791;23;20006;-82
2023/07/13 09:06:24;;;;;;;7.10;1.98;;;;;;;;;;6040991;23;20109;-83
2023/07/13 09:09:03;;;;;;;3.85;1.17;;;;;;;;;;6067025;23;20327;-84
2023/07/13 09:11:31;;;;;;;6.30;1.80;;;;;;;;;;6066892;23;20299;-83
2023/07/13 09:13:59;;;;;;;5.00;1.15;;;;;;;;;;6068527;23;20014;-85
2023/07/13 09:16:25;;;;;;;6.50;1.77;;;;;;;;;;6044035;23;20034;-88
2023/07/13 09:18:51;;;;;;;7.22;1.70;;;;;;;;;;6070447;23;20029;-88
2023/07/13 09:21:19;;;;;;;7.68;1.58;;;;;;;;;;6069353;23;20018;-88
2023/07/13 09:23:44;;;;;;;3.67;1.27;;;;;;;;;;6070039;23;19995;-88
2023/07/13 09:26:20;;;;;;;5.93;1.90;;;;;;;;;;6072006;23;20363;-84
2023/07/13 09:28:47;;;;;;;3.00;1.42;;;;;;;;;;6070968;23;20001;-86
2023/07/13 09:31:15;;;;;;;6.70;1.75;;;;;;;;;;6070024;23;20228;-87
2023/07/13 09:33:41;;;;;;;7.13;1.60;;;;;;;;;;6042961;23;20336;-87
2023/07/13 09:36:27;;;;;;;7.35;1.40;;;;;;;;;;6046058;23;20411;-87
2023/07/13 09:39:03;;;;;;;4.38;1.30;;;;;;;;;;6043864;23;20003;-87
2023/07/13 09:41:34;;;;;;;7.30;1.70;;;;;;;;;;6044371;23;20006;-87
2023/07/13 09:44:13;;;;;;;5.43;1.63;;;;;;;;;;6068562;23;19999;-88
2023/07/13 09:46:59;;;;;;;5.35;1.50;;;;;;;;;;6092805;23;20327;-87
2023/07/13 09:49:25;;;;;;;4.55;1.60;;;;;;;;;;6068494;23;19999;-87
2023/07/13 09:51:57;;;;;;;7.05;1.23;;;;;;;;;;6066512;23;20138;-87
2023/07/13 09:54:24;;;;;;;13.13;2.00;;;;;;;;;;6066307;23;19999;-88
2023/07/13 09:56:56;;;;;;;7.72;1.95;;;;;;;;;;6090586;23;20003;-87
2023/07/13 09:59:23;;;;;;;6.25;1.52;;;;;;;;;;6090396;23;20017;-87
2023/07/13 10:01:49;;;;;;;6.60;1.35;;;;;;;;;;6066278;23;20003;-87
2023/07/13 10:04:18;;;;;;;3.03;1.45;;;;;;;;;;6067699;23;20061;-87
2023/07/13 10:06:44;;;;;;;6.90;1.42;;;;;;;;;;6065925;23;20074;-87
2023/07/13 10:09:10;;;;;;;4.43;1.80;;;;;;;;;;6090244;23;20054;-87
2023/07/13 10:11:36;;;;;;;6.93;1.27;;;;;;;;;;6066113;23;20365;-87
2023/07/13 10:14:09;;;;;;;3.25;1.30;;;;;;;;;;6066065;23;20303;-88
2023/07/13 10:16:34;;;;;;;7.43;1.23;;;;;;;;;;6066262;23;20327;-87
2023/07/13 10:19:05;;;;;;;2.90;1.25;;;;;;;;;;6067689;23;20018;-87
2023/07/13 10:21:35;;;;;;;2.63;1.20;;;;;;;;;;6065967;23;20150;-87
2023/07/13 10:24:05;;;;;;;5.63;1.35;;;;;;;;;;6067745;23;20011;-87
2023/07/13 10:26:32;;;;;;;5.68;1.50;;;;;;;;;;6068359;23;19991;-87
2023/07/13 10:29:01;;;;;;;4.88;1.00;;;;;;;;;;6090829;23;20423;-87
2023/07/13 10:31:26;;;;;;;4.63;1.23;;;;;;;;;;6066900;23;20006;-87
2023/07/13 10:33:52;;;;;;;2.53;1.20;;;;;;;;;;6066859;23;20003;-87
2023/07/13 10:36:28;;;;;;;6.30;1.35;;;;;;;;;;6090376;23;20018;-87
2023/07/13 10:38:55;;;;;;;5.68;1.50;;;;;;;;;;6066920;23;20030;-87
2023/07/13 10:41:24;;;;;;;8.25;1.75;;;;;;;;;;6067933;23;20057;-88
2023/07/13 10:43:51;;;;;;;4.82;1.35;;;;;;;;;;6042620;23;20054;-87
2023/07/13 10:46:18;;;;;;;3.33;1.10;;;;;;;;;;6068444;23;20075;-87
2023/07/13 10:48:46;;;;;;;3.05;0.98;;;;;;;;;;6042695;23;20296;-88
2023/07/13 10:51:14;;;;;;;1.67;1.20;;;;;;;;;;6042699;23;20086;-88
2023/07/13 10:53:42;;;;;;;5.50;1.55;;;;;;;;;;6068358;23;19999;-87
2023/07/13 10:56:08;;;;;;;2.20;1.02;;;;;;;;;;6067449;23;20022;-87
2023/07/13 10:58:38;;;;;;;5.93;1.55;;;;;;;;;;6042481;23;20350;-88
2023/07/13 11:01:06;;;;;;;4.05;1.27;;;;;;;;;;6066346;23;20089;-86
2023/07/13 11:03:33;;;;;;;4.28;0.95;;;;;;;;;;6042650;23;20124;-88
2023/07/13 11:06:08;;;;;;;4.85;1.40;;;;;;;;;;6042438;23;20428;-87
2023/07/13 11:08:36;;;;;;;2.83;1.00;;;;;;;;;;6042679;23;19995;-86
2023/07/13 11:11:01;;;;;;;3.20;1.10;;;;;;;;;;6041965;23;20007;-88
2023/07/13 11:13:37;;;;;;;3.13;1.30;;;;;;;;;;6042479;23;20034;-86
2023/07/13 11:16:23;;;;;;;6.28;1.10;;;;;;;;;;6068090;23;20003;-86
2023/07/13 11:18:53;;;;;;;2.08;0.90;;;;;;;;;;6017758;23;20452;-88
2023/07/13 11:21:22;;;;;;;4.55;1.38;;;;;;;;;;6041398;23;20387;-87
2023/07/13 11:24:07;;;;;;;3.47;1.33;;;;;;;;;;6042374;23;20015;-87
2023/07/13 11:26:42;;;;;;;2.17;0.80;;;;;;;;;;6042164;23;20046;-86
2023/07/13 11:29:08;;;;;;;2.08;0.75;;;;;;;;;;6041903;23;20003;-88
2023/07/13 11:31:34;;;;;;;5.13;1.30;;;;;;;;;;6042838;23;20077;-87
2023/07/13 11:33:59;;;;;;;4.68;1.20;;;;;;;;;;6042937;23;20335;-88
2023/07/13 11:36:29;;;;;;;4.20;1.67;;;;;;;;;;6042923;23;20007;-88
2023/07/13 11:39:10;;;;;;;5.25;1.25;;;;;;;;;;6067755;23;20434;-87
2023/07/13 11:41:38;;;;;;;7.55;1.50;;;;;;;;;;6043277;23;20089;-86
2023/07/13 11:44:23;;;;;;;3.33;1.20;;;;;;;;;;6065432;23;20031;-89
2023/07/13 11:47:00;;;;;;;3.10;1.45;;;;;;;;;;6065689;23;20007;-90
2023/07/13 11:49:29;;;;;;;5.38;1.15;;;;;;;;;;6090553;23;20411;-87
2023/07/13 11:51:55;;;;;;;4.05;1.13;;;;;;;;;;6065507;23;19999;-87
2023/07/13 11:54:29;;;;;;;1.60;0.95;;;;;;;;;;6065705;23;19999;-88
2023/07/13 11:57:01;;;;;;;3.70;1.15;;;;;;;;;;6066190;23;20090;-89
2023/07/13 11:59:28;;;;;;;2.47;0.98;;;;;;;;;;6066359;23;20011;-88
2023/07/13 12:01:54;;;;;;;6.38;1.55;;;;;;;;;;6066186;23;20066;-88
2023/07/13 12:04:28;;;;;;;4.95;1.25;;;;;;;;;;6066372;23;20280;-88
2023/07/13 12:07:16;;;;;;;1.83;0.93;;;;;;;;;;6066138;23;20383;-87
2023/07/13 12:09:42;;;;;;;6.95;1.95;;;;;;;;;;6060941;23;20422;-88
2023/07/13 12:12:14;;;;;;;4.53;1.42;;;;;;;;;;6067323;23;20010;-88
2023/07/13 12:14:40;;;;;;;5.03;1.10;;;;;;;;;;6067486;23;19995;-88
2023/07/13 12:17:26;;;;;;;4.47;1.40;;;;;;;;;;6090335;23;20007;-88
2023/07/13 12:19:52;;;;;;;3.15;1.00;;;;;;;;;;6067540;23;20010;-88
2023/07/13 12:22:19;;;;;;;1.85;1.10;;;;;;;;;;6067844;23;20011;-88
2023/07/13 12:24:45;;;;;;;1.77;1.02;;;;;;;;;;6067630;23;20010;-89
2023/07/13 12:27:19;;;;;;;2.95;1.10;;;;;;;;;;6067540;23;20336;-88
2023/07/13 12:29:49;;;;;;;4.20;1.30;;;;;;;;;;6068282;23;20025;-90
2023/07/13 12:32:17;;;;;;;4.97;1.17;;;;;;;;;;6068084;23;20003;-88
2023/07/13 12:34:53;;;;;;;3.42;1.05;;;;;;;;;;6067644;23;20062;-89
2023/07/13 12:37:18;;;;;;;2.63;1.08;;;;;;;;;;6071074;23;20103;-89
2023/07/13 12:39:46;;;;;;;8.43;2.47;;;;;;;;;;6067194;23;20324;-89
2023/07/13 12:42:28;;;;;;;11.68;3.45;;;;;;;;;;6069029;23;20281;-89
2023/07/13 12:45:27;;;;;;;6.68;1.45;;;;;;;;;;6045640;23;19998;-89
2023/07/13 12:47:53;;;;;;;7.55;1.60;;;;;;;;;;5967709;23;20023;-90
2023/07/13 12:50:23;;;;;;;6.05;1.83;;;;;;;;;;6043360;23;20011;-89
2023/07/13 12:52:53;;;;;;;7.32;1.02;;;;;;;;;;6042932;23;20395;-83
2023/07/13 12:55:20;;;;;;;4.45;1.70;;;;;;;;;;6043005;23;20013;-84
2023/07/13 12:57:49;;;;;;;3.67;1.40;;;;;;;;;;6043269;23;20407;-84
2023/07/13 13:00:34;;;;;;;4.85;1.70;;;;;;;;;;6040923;23;20434;-84
2023/07/13 13:03:05;;;;;;;4.88;1.73;;;;;;;;;;6042378;23;20035;-84
2023/07/13 13:05:31;;;;;;;3.13;1.80;;;;;;;;;;6042705;23;20090;-85
2023/07/13 13:07:57;;;;;;;7.63;2.05;;;;;;;;;;6042056;23;20035;-84
2023/07/13 13:10:22;;;;;;;5.22;1.77;;;;;;;;;;6041734;23;20005;-84
2023/07/13 13:12:48;;;;;;;3.60;1.73;;;;;;;;;;6065528;23;20014;-85
2023/07/13 13:15:16;;;;;;;6.28;2.55;;;;;;;;;;6042509;23;20034;-84
2023/07/13 13:17:44;;;;;;;5.78;2.03;;;;;;;;;;6042385;23;20030;-85
2023/07/13 13:20:17;;;;;;;5.60;1.73;;;;;;;;;;6042836;23;20058;-86
2023/07/13 13:22:42;;;;;;;5.45;1.98;;;;;;;;;;6042180;23;20424;-86
2023/07/13 13:25:11;;;;;;;3.85;1.80;;;;;;;;;;6066386;23;20082;-85
2023/07/13 13:27:37;;;;;;;4.53;1.80;;;;;;;;;;6068262;23;20134;-85
2023/07/13 13:30:02;;;;;;;5.28;1.73;;;;;;;;;;6042768;23;19995;-86
2023/07/13 13:32:28;;;;;;;5.82;1.67;;;;;;;;;;6041589;23;20089;-86
2023/07/13 13:34:53;;;;;;;4.53;1.50;;;;;;;;;;6065827;23;20006;-85
2023/07/13 13:37:20;;;;;;;7.05;1.70;;;;;;;;;;6066397;23;20018;-86
2023/07/13 13:39:46;;;;;;;9.00;2.05;;;;;;;;;;6066683;23;20375;-85
2023/07/13 13:42:12;;;;;;;4.75;2.38;;;;;;;;;;6052051;23;20023;-86
2023/07/13 13:44:37;;;;;;;6.57;2.30;;;;;;;;;;6065601;23;19999;-86
2023/07/13 13:47:02;;;;;;;5.95;2.72;;;;;;;;;;6068326;23;19999;-86
2023/07/13 13:49:29;;;;;;;6.00;3.15;;;;;;;;;;6067063;23;20001;-86
2023/07/13 13:51:55;;;;;;;6.13;2.40;;;;;;;;;;6068278;23;20027;-86
2023/07/13 13:54:21;;;;;;;3.92;2.35;;;;;;;;;;6068289;23;20010;-86
2023/07/13 13:56:51;;;;;;;8.48;1.90;;;;;;;;;;6066889;23;20347;-86
2023/07/13 13:59:16;;;;;;;4.00;1.95;;;;;;;;;;6067111;23;20622;-86
2023/07/13 14:01:44;;;;;;;5.22;1.90;;;;;;;;;;6092473;23;20013;-86
2023/07/13 14:04:14;;;;;;;4.93;2.00;;;;;;;;;;6068921;23;20002;-86
2023/07/13 14:06:39;;;;;;;4.53;1.75;;;;;;;;;;6091431;23;20494;-87
2023/07/13 14:09:10;;;;;;;3.03;1.77;;;;;;;;;;6068189;23;19995;-85
2023/07/13 14:11:35;;;;;;;6.97;2.35;;;;;;;;;;6068722;23;20034;-86
2023/07/13 14:14:03;;;;;;;4.28;1.60;;;;;;;;;;6093363;23;20035;-86
2023/07/13 14:16:31;;;;;;;3.10;1.50;;;;;;;;;;6070695;23;20007;-87
2023/07/13 14:18:59;;;;;;;4.13;2.00;;;;;;;;;;6070008;23;20013;-87
2023/07/13 14:21:25;;;;;;;5.55;1.70;;;;;;;;;;6070316;23;20003;-87
2023/07/13 14:23:51;;;;;;;5.50;1.88;;;;;;;;;;6067590;23;19999;-87
2023/07/13 14:26:17;;;;;;;4.18;1.80;;;;;;;;;;6091012;23;20013;-87
2023/07/13 14:28:44;;;;;;;5.13;1.80;;;;;;;;;;6071221;23;20054;-88
2023/07/13 14:31:10;;;;;;;3.33;1.55;;;;;;;;;;6066843;23;20424;-88
2023/07/13 14:33:37;;;;;;;6.00;2.00;;;;;;;;;;6065966;23;20103;-88
2023/07/13 14:36:07;;;;;;;6.40;1.65;;;;;;;;;;6066513;23;20329;-89
2023/07/13 14:38:33;;;;;;;3.55;1.80;;;;;;;;;;6066547;23;20364;-89
2023/07/13 14:40:58;;;;;;;4.45;1.90;;;;;;;;;;6068517;23;20003;-89
2023/07/13 14:43:28;;;;;;;3.25;1.50;;;;;;;;;;6068149;23;20082;-89